Island Lake Airport
CYIV : now visible

Airfield :











YOU CAN JOIN US ON...

 
LOGIN :

Register | Disclaimer

   EN    FR    IT 

 









Legend :    VFR   Marginal VFR   IFR   Intensive IFR   Very Intensive IFR
Visi :
Ceiling :
>= 8 km
>= 3000ft
5 to 8 km
1000 to 3000 ft
1500m to 5 km
500 to 1000 ft
800 to 1500m
200 to 500 ft
< 800m
< 200 ft
Symbols :   Thunderstorms  Fog  Heavy snow  Heavy precipitations  Wind > 20 kt






- Airport Elevation : 770 ft
- IATA code : YIV


CYIV - Island Lake

CURRENT METAR :
  • 040700Z AUTO 24006KT 9SM CLR M25/M28 A2976 RMK SLP111

EXPIRED METARs :
  • 040606Z AUTO 25006KT 8SM CLR M25/M28 A2978 RMK SLP119
  • 040500Z AUTO 25005KT 9SM FEW023 BKN031 M24/M26 A2979 RMK SLP122
  • 040416Z AUTO 26006KT 9SM FEW014 SCT033 M24/M26 A2980 RMK SLP125

TAF TAF CYIV
Valid from the 04 at 07:00 until the 04 at 19:00 UTC


040644Z 0407/0419 25006KT P6SM FEW040
TEMPO 0407/0416 3SM IC
FM041600 14008KT P6SM -SN BKN040 OVC080
TEMPO 0416/0419 2 1/2SM -SN BKN020 OVC040 RMK FCST BASED ON AUTO OBS. NXT FCST BY 041300Z
CZWG FIR / North America



MET'MAP, your aeronautical weather chart ! - Copyright ORBIFLY December 2007 - Disclaimer

ORBIFLY MET'MAP TEAM :

Programming & Development : Alexandra Zaïnal
Original concept : Baudouin d'Aumeries
Technical & hardware support : Manuel Goepfert
Assistance : Marc-Olivier Méhu




SOURCES & CREDITS :

   NOAA       Earth
Advisory